Time;durP1;ratioP1;P1;durP2;ratioP2;P2;SDS_P1;SDS_P2;PMS_P1;PMS_P2;Temp;Humidity;BMP_temperature;BMP_pressure;BME280_temperature;BME280_humidity;BME280_pressure;Samples;Min_cycle;Max_cycle;Signal;HPM_P1;HPM_P2
2021/06/11 00:03:16;;;;;;;3.70;2.20;;;;;;;19.26;40.45;101535.00;7978421;28;20090;-71
2021/06/11 00:07:07;;;;;;;3.75;2.45;;;;;;;19.20;40.88;101524.91;7987942;28;20041;-71
2021/06/11 00:10:58;;;;;;;4.95;2.47;;;;;;;19.12;41.10;101517.59;7988598;28;20037;-71
2021/06/11 00:14:48;;;;;;;8.05;2.30;;;;;;;19.09;41.19;101522.38;7989449;28;20037;-70
2021/06/11 00:18:39;;;;;;;3.25;2.17;;;;;;;19.00;41.08;101518.72;7975394;28;20090;-70
2021/06/11 00:22:30;;;;;;;4.13;2.30;;;;;;;18.97;41.22;101521.69;7975088;28;20033;-71
2021/06/11 00:26:21;;;;;;;4.50;2.95;;;;;;;18.86;41.59;101516.47;7974971;28;20056;-70
2021/06/11 00:30:12;;;;;;;4.50;2.63;;;;;;;18.84;41.92;101519.28;7977937;28;20025;-71
2021/06/11 00:34:03;;;;;;;3.47;2.47;;;;;;;18.78;41.54;101521.66;7978310;28;20037;-70
2021/06/11 00:37:53;;;;;;;3.80;2.35;;;;;;;18.68;41.74;101519.00;7980618;28;20107;-71
2021/06/11 00:41:44;;;;;;;3.25;2.40;;;;;;;18.65;41.79;101521.91;7982518;28;20038;-71
2021/06/11 00:45:35;;;;;;;3.85;2.33;;;;;;;18.61;42.10;101522.31;7985412;28;20037;-71
2021/06/11 00:49:25;;;;;;;3.80;2.53;;;;;;;18.57;42.36;101512.94;7986959;28;20039;-71
2021/06/11 00:53:16;;;;;;;4.38;2.47;;;;;;;18.49;42.40;101512.78;7985298;28;20029;-71
2021/06/11 00:57:08;;;;;;;3.08;2.65;;;;;;;18.41;42.31;101506.31;7971517;28;20040;-71
2021/06/11 01:00:59;;;;;;;2.95;2.55;;;;;;;18.40;42.75;101511.75;7987989;28;20045;-71
2021/06/11 01:04:50;;;;;;;4.15;2.80;;;;;;;18.38;42.54;101511.91;7949020;28;20038;-72
2021/06/11 01:08:41;;;;;;;4.65;2.20;;;;;;;18.32;42.74;101515.09;7976350;28;20127;-71
2021/06/11 01:12:34;;;;;;;6.32;2.88;;;;;;;18.25;42.93;101498.03;7978873;28;20041;-72
2021/06/11 01:16:24;;;;;;;3.35;2.53;;;;;;;18.23;43.21;101507.94;7975484;28;20058;-71
2021/06/11 01:20:17;;;;;;;3.75;2.78;;;;;;;18.17;43.31;101508.50;7962284;28;20040;-71
2021/06/11 01:24:16;;;;;;;3.28;2.58;;;;;;;18.16;43.22;101513.94;7980767;28;20039;-71
2021/06/11 01:28:07;;;;;;;4.40;2.83;;;;;;;18.04;43.27;101502.56;7982047;28;20395;-71
2021/06/11 01:32:01;;;;;;;4.10;2.67;;;;;;;18.06;43.49;101505.09;7982254;28;20043;-71
2021/06/11 01:35:57;;;;;;;4.28;2.70;;;;;;;17.97;43.67;101496.97;7985068;28;20111;-71
2021/06/11 01:39:54;;;;;;;3.85;2.45;;;;;;;17.98;43.70;101516.41;7989086;28;20040;-71
2021/06/11 01:43:47;;;;;;;;;;;;;;;17.82;42.97;101513.38;7991076;28;20033;-70
2021/06/11 01:47:46;;;;;;;7.75;2.50;;;;;;;17.87;43.78;101511.16;7974043;28;19917;-70
2021/06/11 01:51:38;;;;;;;5.18;2.92;;;;;;;17.79;43.92;101506.50;7985772;28;20040;-72
2021/06/11 01:55:31;;;;;;;3.58;2.72;;;;;;;17.82;44.01;101516.03;7983094;28;20056;-72
2021/06/11 01:59:24;;;;;;;3.20;2.60;;;;;;;17.78;44.22;101526.09;7966123;28;20037;-69
2021/06/11 02:03:16;;;;;;;3.55;2.67;;;;;;;17.75;44.38;101529.00;7985701;28;20032;-71
2021/06/11 02:07:09;;;;;;;4.15;2.78;;;;;;;17.71;44.43;101524.09;7984131;28;20036;-71
2021/06/11 02:11:01;;;;;;;3.92;2.55;;;;;;;17.69;44.51;101523.41;7966258;28;20045;-71
2021/06/11 02:14:52;;;;;;;3.88;2.60;;;;;;;17.65;44.42;101529.91;7990518;28;20037;-72
2021/06/11 02:18:43;;;;;;;3.88;2.42;;;;;;;17.61;44.56;101518.69;7985711;28;20116;-70
2021/06/11 02:22:37;;;;;;;8.90;3.10;;;;;;;17.58;44.68;101518.13;7971736;28;20398;-71
2021/06/11 02:26:28;;;;;;;4.22;3.13;;;;;;;17.53;44.85;101522.00;7986431;28;20689;-71
2021/06/11 02:30:19;;;;;;;3.78;2.80;;;;;;;17.44;45.02;101512.19;7986732;28;20032;-71
2021/06/11 02:34:12;;;;;;;5.40;3.33;;;;;;;17.46;45.12;101525.31;7987816;28;20041;-71
2021/06/11 02:38:03;;;;;;;7.50;2.80;;;;;;;17.44;45.14;101516.66;7989317;28;20037;-71
2021/06/11 02:42:06;;;;;;;4.88;3.17;;;;;;;17.39;45.26;101508.22;7991840;28;20807;-70
2021/06/11 02:45:59;;;;;;;4.45;3.10;;;;;;;17.37;45.33;101512.81;7991300;28;20083;-71
2021/06/11 02:50:04;;;;;;;4.50;3.40;;;;;;;17.32;45.59;101507.06;7992789;28;20053;-71
2021/06/11 02:53:56;;;;;;;3.67;2.60;;;;;;;17.26;45.84;101511.06;7979545;28;20087;-71
2021/06/11 02:57:52;;;;;;;4.97;3.78;;;;;;;17.28;45.83;101522.38;7980647;28;20119;-71
2021/06/11 03:01:50;;;;;;;7.22;3.50;;;;;;;17.22;45.89;101511.47;7984216;28;20543;-71
2021/06/11 03:05:43;;;;;;;7.70;3.35;;;;;;;17.20;45.86;101516.88;7969748;28;20051;-71
2021/06/11 03:09:36;;;;;;;4.93;3.28;;;;;;;17.21;45.94;101518.56;7982740;28;20033;-71
2021/06/11 03:13:28;;;;;;;4.93;3.17;;;;;;;17.15;46.08;101512.94;7983029;28;20033;-71
2021/06/11 03:17:22;;;;;;;5.65;3.15;;;;;;;17.11;46.06;101508.88;7988179;28;20037;-71
2021/06/11 03:21:23;;;;;;;3.75;2.80;;;;;;;17.13;46.16;101520.19;7983822;28;20083;-71
2021/06/11 03:25:20;;;;;;;4.60;3.25;;;;;;;17.09;46.22;101514.28;7985017;28;20087;-71
2021/06/11 03:29:15;;;;;;;4.35;3.17;;;;;;;17.07;46.32;101511.75;7986363;28;20043;-70
2021/06/11 03:33:11;;;;;;;4.78;3.22;;;;;;;17.02;46.42;101510.47;7992787;28;20033;-71
2021/06/11 03:37:06;;;;;;;7.63;3.40;;;;;;;17.01;46.56;101517.59;7989630;28;20435;-71
2021/06/11 03:40:58;;;;;;;4.43;3.33;;;;;;;17.03;46.67;101530.75;7989352;28;20037;-72
2021/06/11 03:44:50;;;;;;;4.88;3.38;;;;;;;17.03;46.88;101533.41;7977209;28;20033;-71
2021/06/11 03:48:44;;;;;;;5.18;3.53;;;;;;;17.02;46.92;101523.75;7976096;28;20040;-71
2021/06/11 03:52:39;;;;;;;5.28;4.18;;;;;;;17.01;47.07;101525.56;7983710;28;20035;-71
2021/06/11 03:56:32;;;;;;;4.85;3.95;;;;;;;16.99;47.10;101523.97;7979369;28;20044;-71
2021/06/11 04:00:24;;;;;;;6.03;4.00;;;;;;;17.05;47.26;101528.78;7979944;28;20029;-71
2021/06/11 04:04:15;;;;;;;5.40;3.83;;;;;;;17.05;47.37;101531.44;7981782;28;20033;-71
2021/06/11 04:08:09;;;;;;;6.68;4.63;;;;;;;17.03;47.54;101515.63;7964867;28;20144;-72
2021/06/11 04:12:07;;;;;;;6.10;4.00;;;;;;;17.10;47.52;101523.94;7984172;28;20026;-72
2021/06/11 04:15:58;;;;;;;;;;;;;;;17.03;46.92;101534.22;7985442;28;20434;-72
2021/06/11 04:19:55;;;;;;;5.85;4.03;;;;;;;17.13;47.59;101514.88;7987958;28;19924;-72
2021/06/11 04:23:46;;;;;;;7.90;4.70;;;;;;;17.23;47.59;101529.09;7988353;28;20072;-71
2021/06/11 04:27:40;;;;;;;5.47;4.15;;;;;;;17.31;47.75;101527.47;7990020;28;20506;-71
2021/06/11 04:31:31;;;;;;;7.07;4.28;;;;;;;17.38;47.63;101523.31;7990164;28;20045;-71
2021/06/11 04:35:24;;;;;;;10.02;4.53;;;;;;;17.45;47.93;101515.66;7970274;28;20583;-71
2021/06/11 04:39:14;;;;;;;6.22;4.75;;;;;;;17.62;47.67;101512.41;7976021;28;20023;-70
2021/06/11 04:43:05;;;;;;;8.77;5.03;;;;;;;17.72;47.82;101502.72;7974723;28;20081;-70
2021/06/11 04:46:56;;;;;;;16.92;5.30;;;;;;;18.01;47.84;101505.50;7979987;28;20045;-70
2021/06/11 04:50:46;;;;;;;9.63;5.72;;;;;;;18.33;48.23;101497.31;7982156;28;20034;-70
2021/06/11 04:54:37;;;;;;;5.97;4.90;;;;;;;18.65;48.21;101484.66;7983507;28;20037;-70
2021/06/11 04:58:28;;;;;;;13.85;6.30;;;;;;;19.15;48.45;101489.88;7984505;28;20071;-70
2021/06/11 05:02:20;;;;;;;7.18;5.22;;;;;;;19.55;48.33;101473.69;7985410;28;20040;-69
2021/06/11 05:06:11;;;;;;;7.95;5.50;;;;;;;20.13;48.12;101479.63;7981014;28;20033;-70
2021/06/11 05:10:03;;;;;;;10.80;5.60;;;;;;;20.57;47.69;101472.63;7989901;28;20037;-70
2021/06/11 05:13:54;;;;;;;6.47;5.28;;;;;;;21.05;47.00;101470.38;7998686;28;20033;-70
2021/06/11 05:17:44;;;;;;;17.60;6.00;;;;;;;21.59;46.98;101477.28;8003275;28;20047;-70
2021/06/11 05:21:35;;;;;;;8.73;6.75;;;;;;;22.07;46.48;101468.69;7971748;28;20037;-70
2021/06/11 05:25:26;;;;;;;8.38;6.43;;;;;;;22.59;46.08;101476.53;7973277;28;20127;-70
2021/06/11 05:29:17;;;;;;;10.60;7.22;;;;;;;23.04;45.60;101476.06;7983865;28;20065;-70
2021/06/11 05:33:08;;;;;;;11.40;6.88;;;;;;;23.49;45.36;101480.91;7985677;28;20037;-70
2021/06/11 05:36:58;;;;;;;7.70;6.13;;;;;;;23.90;44.92;101484.31;7980468;28;20395;-70
2021/06/11 05:40:49;;;;;;;7.65;5.82;;;;;;;24.29;44.45;101487.00;7963307;28;20136;-70
2021/06/11 05:44:39;;;;;;;9.23;6.47;;;;;;;24.68;43.63;101490.47;7986257;28;20033;-71
2021/06/11 05:48:30;;;;;;;9.88;6.47;;;;;;;25.05;43.55;101495.06;7985557;28;20033;-71
2021/06/11 05:52:21;;;;;;;11.57;6.85;;;;;;;25.38;43.28;101487.53;7986413;28;20045;-71
2021/06/11 05:56:12;;;;;;;8.10;6.03;;;;;;;25.70;42.37;101500.66;7988173;28;20040;-70
2021/06/11 06:00:04;;;;;;;11.52;6.43;;;;;;;26.01;42.29;101492.41;7971392;28;20029;-71
2021/06/11 06:03:56;;;;;;;15.82;7.30;;;;;;;26.33;41.76;101493.00;7964928;28;20099;-71
2021/06/11 06:07:47;;;;;;;10.40;6.82;;;;;;;26.64;41.78;101482.78;7999471;28;20405;-71
2021/06/11 06:11:38;;;;;;;9.60;5.78;;;;;;;26.78;41.55;101483.75;7993221;28;20500;-70
2021/06/11 06:15:28;;;;;;;9.20;6.63;;;;;;;26.57;42.05;101488.09;7993609;28;20080;-70
2021/06/11 06:19:19;;;;;;;8.63;6.47;;;;;;;26.31;42.61;101495.06;7984709;28;20037;-70
2021/06/11 06:23:10;;;;;;;8.20;6.00;;;;;;;26.01;42.01;101499.66;7958128;28;20236;-70
2021/06/11 06:27:02;;;;;;;13.07;6.45;;;;;;;25.73;41.80;101502.13;7968128;28;20032;-71
2021/06/11 06:30:53;;;;;;;7.82;6.20;;;;;;;25.38;42.27;101510.88;7987749;28;20581;-70
2021/06/11 06:34:43;;;;;;;8.82;5.45;;;;;;;25.04;42.26;101517.56;7983706;28;20036;-70
2021/06/11 06:38:34;;;;;;;8.05;6.07;;;;;;;24.76;42.08;101516.44;7986509;28;20033;-70
2021/06/11 06:42:25;;;;;;;9.10;6.88;;;;;;;24.52;42.49;101517.44;7986644;28;20137;-71
2021/06/11 06:46:21;;;;;;;7.72;6.28;;;;;;;24.36;42.62;101519.38;7973344;28;20032;-70
2021/06/11 06:50:15;;;;;;;11.63;5.90;;;;;;;24.17;42.79;101513.38;7989147;28;20494;-71
2021/06/11 06:54:06;;;;;;;8.32;6.15;;;;;;;24.03;42.56;101519.47;7988563;28;20032;-70
2021/06/11 06:57:57;;;;;;;8.38;6.25;;;;;;;23.92;42.60;101519.00;7989474;28;20041;-71
2021/06/11 07:01:48;;;;;;;10.15;5.90;;;;;;;23.77;43.01;101500.97;7990645;28;20505;-70
2021/06/11 07:05:39;;;;;;;11.68;6.00;;;;;;;23.78;42.83;101523.28;7990513;28;20033;-71
2021/06/11 07:09:30;;;;;;;13.20;5.90;;;;;;;23.73;42.79;101507.69;7967564;28;20082;-71
2021/06/11 07:13:20;;;;;;;7.43;5.32;;;;;;;23.69;42.88;101511.72;7971296;28;20094;-71
2021/06/11 07:17:11;;;;;;;8.65;5.65;;;;;;;23.69;42.96;101517.09;7987197;28;20037;-71
2021/06/11 07:21:02;;;;;;;7.82;5.13;;;;;;;23.67;42.90;101510.16;7981116;28;20506;-69
2021/06/11 07:24:54;;;;;;;6.88;5.43;;;;;;;23.65;42.84;101513.03;7981042;28;20033;-72
2021/06/11 07:28:46;;;;;;;6.35;5.22;;;;;;;23.68;42.84;101509.16;7982200;28;20039;-71
2021/06/11 07:32:37;;;;;;;7.15;4.90;;;;;;;23.65;42.94;101507.69;7982028;28;20029;-71
2021/06/11 07:36:27;;;;;;;5.93;4.72;;;;;;;23.71;42.52;101517.75;7981949;28;20031;-71
2021/06/11 07:40:19;;;;;;;8.48;5.20;;;;;;;23.74;42.84;101524.63;7983953;28;20033;-71
2021/06/11 07:44:09;;;;;;;11.18;5.32;;;;;;;23.75;42.47;101524.44;7956222;28;20034;-71
2021/06/11 07:48:00;;;;;;;8.38;5.25;;;;;;;23.79;42.97;101524.91;7935691;28;20033;-71
2021/06/11 07:51:50;;;;;;;9.20;5.40;;;;;;;23.81;42.58;101525.59;7936698;28;20034;-71
2021/06/11 07:55:42;;;;;;;6.65;4.95;;;;;;;23.83;42.33;101529.78;7939900;28;20375;-71
2021/06/11 07:59:32;;;;;;;7.95;5.30;;;;;;;23.85;42.29;101527.78;7940952;28;20045;-71
2021/06/11 08:03:23;;;;;;;10.90;5.10;;;;;;;23.86;42.24;101542.84;7938842;28;20029;-71
2021/06/11 08:07:15;;;;;;;10.88;4.90;;;;;;;23.87;42.27;101539.16;7939921;28;20048;-71
2021/06/11 08:11:06;;;;;;;6.28;4.55;;;;;;;23.95;42.08;101553.56;7938640;28;20048;-71
2021/06/11 08:14:57;;;;;;;8.25;4.57;;;;;;;23.99;42.27;101561.06;7935403;28;20029;-71
2021/06/11 08:18:48;;;;;;;9.60;4.78;;;;;;;24.00;42.50;101551.19;7937714;28;20096;-71
2021/06/11 08:22:39;;;;;;;7.28;4.32;;;;;;;24.02;42.58;101554.53;7936871;28;20038;-71
2021/06/11 08:26:30;;;;;;;15.15;7.60;;;;;;;24.04;42.31;101542.63;7917401;28;20417;-71
2021/06/11 08:30:20;;;;;;;12.40;5.72;;;;;;;24.10;42.08;101549.16;7937901;28;20148;-71
2021/06/11 08:34:11;;;;;;;6.80;5.15;;;;;;;24.08;42.31;101553.84;7937275;28;20049;-70
2021/06/11 08:38:02;;;;;;;9.15;6.35;;;;;;;24.08;42.34;101554.69;7937077;28;20026;-71
2021/06/11 08:41:56;;;;;;;8.40;5.45;;;;;;;24.07;42.24;101547.63;7940133;28;20718;-71
2021/06/11 08:45:49;;;;;;;10.05;4.75;;;;;;;24.11;42.06;101548.94;7933862;28;20060;-71
2021/06/11 08:49:42;;;;;;;6.18;4.07;;;;;;;24.12;42.04;101547.94;7937980;28;20077;-71
2021/06/11 08:53:32;;;;;;;7.43;4.07;;;;;;;24.15;42.20;101544.94;7934782;28;20041;-71
2021/06/11 08:57:24;;;;;;;5.95;4.35;;;;;;;24.14;41.88;101540.56;7940902;28;20029;-71
2021/06/11 09:01:15;;;;;;;5.18;3.95;;;;;;;24.15;41.84;101531.53;7938497;28;20491;-71
2021/06/11 09:05:06;;;;;;;12.30;4.55;;;;;;;24.24;41.61;101548.41;7935055;28;20551;-71
2021/06/11 09:08:59;;;;;;;6.93;4.32;;;;;;;24.26;41.96;101551.75;7941476;28;20037;-71
2021/06/11 09:12:52;;;;;;;6.22;4.25;;;;;;;24.29;41.74;101548.75;7935979;28;20038;-71
2021/06/11 09:16:46;;;;;;;5.88;3.80;;;;;;;24.33;41.58;101552.75;7939309;28;20034;-71
2021/06/11 09:20:45;;;;;;;8.00;3.90;;;;;;;24.32;41.60;101548.41;7939661;28;20509;-71
2021/06/11 09:24:43;;;;;;;6.05;4.13;;;;;;;24.40;41.68;101551.06;7937964;28;20030;-71
2021/06/11 09:28:34;;;;;;;6.07;4.15;;;;;;;24.45;41.83;101539.78;7932737;28;20025;-71
2021/06/11 09:32:30;;;;;;;9.38;5.20;;;;;;;24.45;41.56;101545.16;7937970;28;20126;-71
2021/06/11 09:36:20;;;;;;;7.53;4.72;;;;;;;24.55;41.63;101551.97;7939722;28;20026;-71
2021/06/11 09:40:13;;;;;;;7.00;4.53;;;;;;;24.63;41.96;101551.94;7937933;28;20049;-71
2021/06/11 09:44:05;;;;;;;7.88;4.65;;;;;;;24.68;41.33;101546.88;7934753;28;20044;-71
2021/06/11 09:47:56;;;;;;;6.18;4.55;;;;;;;24.66;41.31;101551.56;7937417;28;20070;-70
2021/06/11 09:52:03;;;;;;;7.40;4.90;;;;;;;24.60;41.06;101546.94;7938678;28;20059;-70
2021/06/11 09:55:54;;;;;;;8.30;5.00;;;;;;;24.57;41.27;101557.19;7937454;28;20026;-70
2021/06/11 09:59:44;;;;;;;6.80;4.63;;;;;;;24.57;40.82;101551.81;7941187;28;20030;-71
2021/06/11 10:03:37;;;;;;;6.95;4.63;;;;;;;24.57;40.85;101544.56;7927220;28;20036;-73
2021/06/11 10:07:28;;;;;;;7.03;4.65;;;;;;;24.63;41.05;101545.72;7950983;28;20033;-72
2021/06/11 10:11:25;;;;;;;6.45;4.70;;;;;;;24.68;41.22;101540.66;7949316;28;20033;-71
2021/06/11 10:15:16;;;;;;;;;;;;;;;24.54;41.74;101538.72;7931778;28;20059;-71
2021/06/11 10:19:07;;;;;;;7.22;3.45;;;;;;;24.73;41.04;101551.72;7949852;28;19925;-72
2021/06/11 10:22:59;;;;;;;6.00;4.63;;;;;;;24.72;41.21;101529.38;7947009;28;20041;-71
2021/06/11 10:26:50;;;;;;;5.60;3.60;;;;;;;24.82;40.83;101539.06;7945498;28;20053;-69
2021/06/11 10:30:41;;;;;;;5.68;3.63;;;;;;;24.83;41.32;101536.19;7908168;28;20151;-69
2021/06/11 10:34:50;;;;;;;6.32;4.10;;;;;;;24.87;40.97;101525.94;7944820;28;20482;-69
2021/06/11 10:38:41;;;;;;;5.03;3.58;;;;;;;24.95;40.64;101533.94;7939547;28;20250;-69
2021/06/11 10:42:31;;;;;;;3.95;2.97;;;;;;;24.97;40.39;101527.38;7939699;28;20796;-69
2021/06/11 10:46:24;;;;;;;4.15;2.83;;;;;;;25.00;40.60;101520.81;7942360;28;20034;-69
2021/06/11 10:50:15;;;;;;;3.80;2.65;;;;;;;25.04;40.43;101514.88;7944306;28;20037;-69
2021/06/11 10:54:28;;;;;;;5.25;2.95;;;;;;;25.05;40.48;101521.94;7940826;28;20091;-69
2021/06/11 10:58:21;;;;;;;3.30;2.47;;;;;;;25.13;40.65;101511.13;7943235;28;20033;-69
2021/06/11 11:02:12;;;;;;;7.10;3.30;;;;;;;25.13;40.72;101502.22;7941167;28;20038;-70
2021/06/11 11:06:29;;;;;;;5.10;2.95;;;;;;;25.15;40.20;101514.44;7943901;28;20053;-70
2021/06/11 11:10:42;;;;;;;6.63;3.22;;;;;;;25.11;40.10;101512.28;7939570;28;20042;-69
2021/06/11 11:14:41;;;;;;;3.97;2.75;;;;;;;25.06;39.95;101510.19;7936590;28;20075;-68
2021/06/11 11:18:32;;;;;;;5.43;2.38;;;;;;;25.03;40.23;101512.38;7943520;28;20136;-69
2021/06/11 11:22:27;;;;;;;4.43;2.40;;;;;;;24.98;39.82;101507.56;7945606;28;20486;-69
2021/06/11 11:26:49;;;;;;;5.15;2.40;;;;;;;24.97;40.63;101507.72;7945340;28;20417;-69
2021/06/11 11:30:41;;;;;;;3.55;2.00;;;;;;;25.04;40.06;101501.44;7943458;28;20949;-69
2021/06/11 11:34:32;;;;;;;4.32;2.80;;;;;;;25.09;39.99;101501.75;7942681;28;20045;-69
2021/06/11 11:38:23;;;;;;;5.95;2.22;;;;;;;25.15;40.49;101500.16;7945059;28;20500;-69
2021/06/11 11:42:14;;;;;;;4.50;1.90;;;;;;;25.18;40.11;101497.13;7939357;28;20056;-69
2021/06/11 11:46:04;;;;;;;3.78;2.22;;;;;;;25.11;39.50;101502.38;7943309;28;20046;-69
2021/06/11 11:50:03;;;;;;;3.50;1.90;;;;;;;25.10;39.85;101500.75;7941528;28;20033;-69
2021/06/11 11:53:53;;;;;;;2.38;1.73;;;;;;;25.13;40.13;101489.63;7939955;28;20641;-69
2021/06/11 11:57:45;;;;;;;3.42;1.85;;;;;;;25.15;39.92;101501.00;7940261;28;20049;-69
2021/06/11 12:01:44;;;;;;;5.25;1.92;;;;;;;25.15;39.97;101486.72;7939947;28;21356;-69
2021/06/11 12:05:34;;;;;;;2.85;1.60;;;;;;;25.13;39.64;101486.94;7941283;28;20050;-69
2021/06/11 12:09:25;;;;;;;2.55;1.90;;;;;;;25.15;39.89;101481.34;7942864;28;20044;-69
2021/06/11 12:13:16;;;;;;;3.50;1.80;;;;;;;25.20;39.58;101476.25;7921850;28;20040;-69
2021/06/11 12:17:06;;;;;;;4.20;2.30;;;;;;;25.27;39.33;101477.22;7941784;28;20776;-69
2021/06/11 12:20:57;;;;;;;4.43;1.90;;;;;;;25.34;39.78;101475.47;7943054;28;20045;-69
2021/06/11 12:24:48;;;;;;;3.08;1.75;;;;;;;25.40;39.28;101488.16;7941167;28;20034;-69
2021/06/11 12:28:39;;;;;;;4.78;2.17;;;;;;;25.41;39.56;101476.41;7943682;28;20040;-69
2021/06/11 12:32:30;;;;;;;3.75;2.30;;;;;;;25.40;39.39;101481.94;7942203;28;20103;-69
2021/06/11 12:36:20;;;;;;;3.88;2.03;;;;;;;25.39;39.03;101473.06;7946101;28;20579;-68
2021/06/11 12:40:14;;;;;;;4.60;2.05;;;;;;;25.35;38.72;101466.38;7946532;28;20042;-69
2021/06/11 12:44:16;;;;;;;4.03;2.03;;;;;;;25.29;39.09;101467.09;7936043;28;20072;-69
2021/06/11 12:48:07;;;;;;;3.53;1.75;;;;;;;25.25;39.23;101463.13;7940342;28;20045;-69
2021/06/11 12:51:58;;;;;;;2.25;1.70;;;;;;;25.21;39.18;101461.81;7941968;28;20026;-69
2021/06/11 12:55:49;;;;;;;6.90;1.50;;;;;;;25.16;38.66;101456.97;7934799;28;20037;-69
2021/06/11 12:59:44;;;;;;;3.17;1.75;;;;;;;25.10;38.81;101448.81;7935986;28;20114;-69
2021/06/11 13:03:34;;;;;;;3.25;1.67;;;;;;;25.12;38.74;101444.94;7942542;28;20042;-69
2021/06/11 13:07:27;;;;;;;10.45;1.83;;;;;;;25.07;38.95;101431.19;7938015;28;20406;-69
2021/06/11 13:11:18;;;;;;;3.03;1.50;;;;;;;25.06;38.57;101434.09;7920113;28;20049;-69
2021/06/11 13:15:10;;;;;;;2.38;1.60;;;;;;;25.11;39.17;101442.41;7936352;28;20030;-69
2021/06/11 13:19:02;;;;;;;3.38;2.20;;;;;;;25.16;39.03;101435.47;7939958;28;20026;-69
2021/06/11 13:22:53;;;;;;;2.53;1.60;;;;;;;25.25;38.85;101441.59;7941723;28;20041;-68
2021/06/11 13:26:44;;;;;;;4.85;1.95;;;;;;;25.27;39.00;101435.00;7940809;28;20047;-69
2021/06/11 13:30:35;;;;;;;2.42;1.55;;;;;;;25.29;39.08;101436.69;7938220;28;20030;-69
2021/06/11 13:34:25;;;;;;;2.70;1.50;;;;;;;25.31;38.54;101431.97;7942637;28;20041;-69
2021/06/11 13:38:17;;;;;;;2.10;1.42;;;;;;;25.32;38.41;101423.72;7949090;28;20095;-69
2021/06/11 13:42:08;;;;;;;4.88;1.45;;;;;;;25.28;38.35;101425.09;7945671;28;20499;-69
2021/06/11 13:45:59;;;;;;;5.43;1.40;;;;;;;25.28;38.68;101414.34;7926471;28;20038;-69
2021/06/11 13:49:49;;;;;;;1.88;1.45;;;;;;;25.33;38.67;101422.69;7945991;28;20042;-69
2021/06/11 13:53:40;;;;;;;4.78;1.38;;;;;;;25.31;38.35;101408.63;7945034;28;20048;-69
2021/06/11 13:57:30;;;;;;;1.20;1.10;;;;;;;25.38;38.13;101403.31;7950578;28;20401;-69
2021/06/11 14:01:21;;;;;;;3.13;1.23;;;;;;;25.41;38.44;101405.63;7943622;28;20049;-69
2021/06/11 14:05:13;;;;;;;2.50;1.38;;;;;;;25.45;38.20;101409.66;7942082;28;20075;-69
2021/06/11 14:09:05;;;;;;;3.50;1.30;;;;;;;25.52;38.14;101408.72;7945497;28;20034;-69
2021/06/11 14:12:55;;;;;;;2.10;1.33;;;;;;;25.62;37.84;101398.50;7941993;28;20034;-69
2021/06/11 14:16:46;;;;;;;1.52;1.27;;;;;;;25.62;38.21;101393.13;7924993;28;20041;-69
2021/06/11 14:20:37;;;;;;;4.38;1.55;;;;;;;25.74;38.32;101395.34;7941926;28;20164;-69
2021/06/11 14:24:27;;;;;;;2.33;1.38;;;;;;;25.74;38.09;101398.84;7924641;28;20049;-69
2021/06/11 14:28:18;;;;;;;1.63;1.33;;;;;;;25.76;38.05;101401.38;7943641;28;20060;-69
2021/06/11 14:32:08;;;;;;;2.05;1.33;;;;;;;25.75;37.84;101403.22;7943730;28;20037;-69
2021/06/11 14:35:59;;;;;;;2.55;1.30;;;;;;;25.73;37.81;101399.06;7945845;28;20560;-69
2021/06/11 14:39:50;;;;;;;2.33;0.98;;;;;;;25.68;37.21;101396.94;7946215;28;20033;-69
2021/06/11 14:43:41;;;;;;;1.35;1.10;;;;;;;25.55;37.27;101381.47;7944212;28;20041;-68
2021/06/11 14:47:32;;;;;;;2.33;1.10;;;;;;;25.62;37.09;101392.28;7942676;28;20771;-69
2021/06/11 14:51:23;;;;;;;1.85;1.05;;;;;;;25.61;36.82;101401.38;7940310;28;20042;-69
2021/06/11 14:55:15;;;;;;;3.63;0.90;;;;;;;25.61;37.14;101398.69;7945125;28;20034;-69
2021/06/11 14:59:07;;;;;;;1.27;0.85;;;;;;;25.58;37.16;101397.22;7945612;28;20065;-69
2021/06/11 15:02:58;;;;;;;1.35;1.10;;;;;;;25.55;37.29;101391.38;7946053;28;20045;-68
2021/06/11 15:06:48;;;;;;;3.28;1.33;;;;;;;25.50;37.13;101381.19;7944005;28;20106;-69
2021/06/11 15:10:40;;;;;;;1.17;0.77;;;;;;;25.50;37.30;101381.19;7944093;28;20050;-69
2021/06/11 15:14:31;;;;;;;1.08;1.00;;;;;;;25.49;37.14;101375.97;7940996;28;20044;-69
2021/06/11 15:18:23;;;;;;;1.60;0.90;;;;;;;25.47;36.58;101378.88;7941750;28;20029;-68
2021/06/11 15:22:14;;;;;;;3.67;1.30;;;;;;;25.46;36.57;101373.66;7940767;28;20041;-68
2021/06/11 15:26:05;;;;;;;1.00;0.90;;;;;;;25.41;37.02;101368.81;7941302;28;20095;-69
2021/06/11 15:29:56;;;;;;;1.40;0.98;;;;;;;25.39;36.95;101378.09;7943373;28;20060;-68
2021/06/11 15:33:47;;;;;;;1.30;1.02;;;;;;;25.34;36.47;101380.50;7937591;28;20619;-69
2021/06/11 15:37:38;;;;;;;0.80;0.80;;;;;;;25.32;36.49;101367.25;7940703;28;20042;-68
2021/06/11 15:41:29;;;;;;;1.40;1.10;;;;;;;25.29;36.46;101373.00;7923093;28;20041;-68
2021/06/11 15:45:20;;;;;;;1.27;0.90;;;;;;;25.29;36.38;101366.78;7940116;28;20038;-68
2021/06/11 15:49:11;;;;;;;1.30;1.20;;;;;;;25.27;36.59;101367.00;7945021;28;20056;-68
2021/06/11 15:53:02;;;;;;;1.85;1.08;;;;;;;25.26;36.93;101365.31;7940539;28;20103;-68
2021/06/11 15:56:52;;;;;;;1.17;1.08;;;;;;;25.27;36.86;101374.22;7941971;28;20065;-68
2021/06/11 16:00:47;;;;;;;4.82;1.08;;;;;;;25.26;36.42;101362.63;7945611;28;20028;-68
2021/06/11 16:04:38;;;;;;;1.55;1.02;;;;;;;25.27;36.51;101357.03;7942231;28;20144;-68
2021/06/11 16:08:29;;;;;;;1.17;1.00;;;;;;;25.28;36.71;101355.19;7937918;28;20041;-68
2021/06/11 16:12:19;;;;;;;7.13;1.45;;;;;;;25.30;36.44;101357.69;7936726;28;20050;-68
2021/06/11 16:16:10;;;;;;;1.10;0.90;;;;;;;25.33;36.41;101358.16;7938927;28;20029;-68
2021/06/11 16:20:04;;;;;;;1.23;1.10;;;;;;;25.35;36.45;101355.28;7925278;28;20041;-69
2021/06/11 16:23:55;;;;;;;1.33;1.20;;;;;;;25.33;36.69;101352.78;7939124;28;20030;-69
2021/06/11 16:27:46;;;;;;;0.80;0.80;;;;;;;25.34;36.34;101349.06;7938538;28;20056;-69
2021/06/11 16:31:36;;;;;;;1.48;1.30;;;;;;;25.33;36.43;101338.50;7918936;28;20038;-69
2021/06/11 16:35:28;;;;;;;2.83;1.50;;;;;;;25.30;36.27;101342.41;7938897;28;20044;-69
2021/06/11 16:39:18;;;;;;;1.40;0.80;;;;;;;25.29;36.46;101339.91;7940023;28;20715;-69
2021/06/11 16:43:09;;;;;;;0.98;0.90;;;;;;;25.21;36.71;101327.38;7935935;28;20126;-69
2021/06/11 16:47:00;;;;;;;2.15;1.02;;;;;;;25.27;36.37;101336.56;7939957;28;20056;-69
2021/06/11 16:50:50;;;;;;;1.83;1.25;;;;;;;25.26;36.63;101335.72;7939020;28;20579;-69
2021/06/11 16:54:41;;;;;;;1.10;0.82;;;;;;;25.25;36.45;101342.97;7930862;28;20052;-69
2021/06/11 16:58:33;;;;;;;1.45;1.10;;;;;;;25.21;36.49;101332.75;7938511;28;20042;-69
2021/06/11 17:02:23;;;;;;;3.30;1.65;;;;;;;25.24;36.45;101338.59;7939084;28;20040;-69
2021/06/11 17:06:14;;;;;;;2.30;1.45;;;;;;;25.24;36.63;101338.59;7934133;28;20044;-69
2021/06/11 17:10:07;;;;;;;2.15;1.55;;;;;;;25.25;36.44;101324.16;7944081;28;20053;-69
2021/06/11 17:13:57;;;;;;;1.80;1.30;;;;;;;25.24;36.48;101330.53;7942749;28;20049;-70
2021/06/11 17:17:49;;;;;;;1.85;1.38;;;;;;;25.19;36.62;101332.09;7944733;28;20034;-71
2021/06/11 17:21:39;;;;;;;1.40;1.08;;;;;;;25.19;36.50;101332.94;7943954;28;20724;-69
2021/06/11 17:25:39;;;;;;;1.35;1.02;;;;;;;25.17;36.34;101339.53;7943480;28;20495;-69
2021/06/11 17:29:37;;;;;;;1.63;1.50;;;;;;;25.11;36.57;101337.56;7929227;28;20037;-69
2021/06/11 17:33:30;;;;;;;2.30;1.70;;;;;;;25.07;36.54;101339.81;7945967;28;20042;-68
2021/06/11 17:37:27;;;;;;;2.00;1.60;;;;;;;25.03;36.43;101343.88;7943624;28;20061;-69
2021/06/11 17:41:21;;;;;;;2.67;1.65;;;;;;;24.98;36.64;101334.72;7947032;28;20764;-69
2021/06/11 17:45:24;;;;;;;1.70;1.30;;;;;;;24.97;36.42;101338.41;7941439;28;20040;-69
2021/06/11 17:49:15;;;;;;;2.55;1.50;;;;;;;24.97;36.55;101343.78;7947755;28;20186;-69
2021/06/11 17:53:11;;;;;;;2.58;1.60;;;;;;;24.96;36.37;101342.13;7946282;28;20479;-69
2021/06/11 17:57:04;;;;;;;2.85;1.80;;;;;;;24.91;36.82;101348.03;7942609;28;20030;-72
2021/06/11 18:00:59;;;;;;;2.28;1.70;;;;;;;24.90;36.47;101348.25;7941495;28;20033;-71